KLM999 EDDF-EKCH
Flight info
| Callsign | KLM999 |
|---|---|
| Flight time | N/A |
| Altitude | 37000 |
| Route | MARUN6E/07C MARUN Y150 TOLGI DCT SAS DCT MAKEL N851 GESKA Z711 MONAK |
| Aircraft | B738/M-V/N |
Departure
| Time | N/A |
|---|---|
| Airport | Frankfurt Main Airport (EDDF) |
Arrival
| Time | 2026-04-30 18:36 |
|---|---|
| Airport | Copenhagen Kastrup Airport (EKCH) |
| Time | Latitude | Longitude | Altitude | Speed | Heading |
|---|---|---|---|---|---|
| 2026-04-30 17:39 | 50.78339 | 8.88843 | 25090 ft | 351 kts | 32° |
| 2026-04-30 17:41 | 50.95831 | 9.04296 | 29043 ft | 367 kts | 31° |
| 2026-04-30 17:42 | 51.00312 | 9.08296 | 29898 ft | 371 kts | 31° |
| 2026-04-30 17:42 | 51.07101 | 9.14322 | 31034 ft | 377 kts | 31° |
| 2026-04-30 17:43 | 51.11700 | 9.18458 | 31757 ft | 381 kts | 31° |
| 2026-04-30 17:44 | 51.18677 | 9.24764 | 32752 ft | 387 kts | 31° |
| 2026-04-30 17:44 | 51.25758 | 9.31181 | 33674 ft | 393 kts | 30° |
| 2026-04-30 17:46 | 51.39084 | 9.37806 | 34579 ft | 417 kts | 14° |
| 2026-04-30 17:47 | 51.50610 | 9.41874 | 35375 ft | 426 kts | 14° |
| 2026-04-30 17:48 | 51.62136 | 9.45905 | 36600 ft | 422 kts | 14° |
| 2026-04-30 17:48 | 51.70701 | 9.48948 | 37415 ft | 420 kts | 14° |
| 2026-04-30 17:50 | 51.92779 | 9.61306 | 37448 ft | 421 kts | 27° |
| 2026-04-30 17:52 | 52.08467 | 9.74169 | 37461 ft | 421 kts | 27° |
| 2026-04-30 17:54 | 52.32017 | 9.93474 | 37463 ft | 421 kts | 27° |
| 2026-04-30 17:56 | 52.52865 | 10.10824 | 37466 ft | 421 kts | 27° |
| 2026-04-30 17:58 | 52.68509 | 10.23969 | 37467 ft | 422 kts | 27° |
| 2026-04-30 18:00 | 52.89395 | 10.41688 | 37467 ft | 422 kts | 27° |
| 2026-04-30 18:01 | 53.02465 | 10.52874 | 37468 ft | 424 kts | 27° |
| 2026-04-30 18:02 | 53.18129 | 10.66383 | 37472 ft | 423 kts | 27° |
| 2026-04-30 18:04 | 53.33836 | 10.80041 | 37481 ft | 424 kts | 27° |
| 2026-04-30 18:06 | 53.54692 | 10.98354 | 36751 ft | 412 kts | 28° |
| 2026-04-30 18:07 | 53.64742 | 11.07252 | 35728 ft | 408 kts | 28° |
| 2026-04-30 18:08 | 53.72173 | 11.13863 | 33488 ft | 405 kts | 28° |
| 2026-04-30 18:09 | 53.82374 | 11.22980 | 29460 ft | 416 kts | 28° |
| 2026-04-30 18:10 | 53.92609 | 11.32180 | 28650 ft | 423 kts | 28° |
| 2026-04-30 18:11 | 54.03047 | 11.41617 | 28232 ft | 420 kts | 28° |
| 2026-04-30 18:11 | 54.10562 | 11.48442 | 26070 ft | 401 kts | 28° |
| 2026-04-30 18:12 | 54.17855 | 11.55073 | 23851 ft | 389 kts | 27° |
| 2026-04-30 18:13 | 54.22548 | 11.59329 | 22413 ft | 381 kts | 28° |
| 2026-04-30 18:13 | 54.28702 | 11.64990 | 20508 ft | 370 kts | 28° |
| 2026-04-30 18:14 | 54.33169 | 11.69119 | 19109 ft | 363 kts | 29° |
| 2026-04-30 18:15 | 54.39746 | 11.75215 | 17025 ft | 353 kts | 30° |
| 2026-04-30 18:15 | 54.46160 | 11.81108 | 14991 ft | 344 kts | 27° |
| 2026-04-30 18:16 | 54.50505 | 11.84440 | 13669 ft | 338 kts | 26° |
| 2026-04-30 18:16 | 54.54772 | 11.87748 | 12331 ft | 334 kts | 26° |
| 2026-04-30 18:17 | 54.56869 | 11.89401 | 11698 ft | 331 kts | 26° |
| 2026-04-30 18:17 | 54.58961 | 11.91052 | 11005 ft | 330 kts | 26° |
| 2026-04-30 18:17 | 54.63022 | 11.94629 | 9839 ft | 324 kts | 33° |
| 2026-04-30 18:18 | 54.64904 | 11.96740 | 9646 ft | 323 kts | 34° |
| 2026-04-30 18:18 | 54.66768 | 11.98940 | 9582 ft | 325 kts | 35° |
| 2026-04-30 18:18 | 54.68652 | 12.01133 | 9508 ft | 327 kts | 34° |
| 2026-04-30 18:18 | 54.70553 | 12.03311 | 9470 ft | 327 kts | 34° |
| 2026-04-30 18:19 | 54.72442 | 12.05490 | 9471 ft | 327 kts | 34° |
| 2026-04-30 18:19 | 54.74329 | 12.07678 | 9471 ft | 327 kts | 34° |
| 2026-04-30 18:19 | 54.76219 | 12.09875 | 9471 ft | 327 kts | 34° |
| 2026-04-30 18:19 | 54.78080 | 12.12044 | 9471 ft | 327 kts | 34° |
| 2026-04-30 18:20 | 54.79971 | 12.14252 | 9470 ft | 328 kts | 34° |
| 2026-04-30 18:20 | 54.81858 | 12.16458 | 9470 ft | 328 kts | 34° |
| 2026-04-30 18:20 | 54.83750 | 12.18672 | 9470 ft | 328 kts | 34° |
| 2026-04-30 18:20 | 54.85643 | 12.20890 | 9470 ft | 328 kts | 34° |
| 2026-04-30 18:21 | 54.87530 | 12.23102 | 9469 ft | 328 kts | 34° |
| 2026-04-30 18:21 | 54.89420 | 12.25318 | 9469 ft | 328 kts | 34° |
| 2026-04-30 18:21 | 54.91314 | 12.27541 | 9468 ft | 329 kts | 34° |
| 2026-04-30 18:21 | 54.93217 | 12.29772 | 9470 ft | 336 kts | 34° |
| 2026-04-30 18:22 | 54.95210 | 12.32116 | 9470 ft | 352 kts | 34° |
| 2026-04-30 18:22 | 54.99341 | 12.36965 | 9468 ft | 363 kts | 34° |
| 2026-04-30 18:22 | 55.01434 | 12.39422 | 9380 ft | 363 kts | 33° |
| 2026-04-30 18:23 | 55.03544 | 12.41841 | 8716 ft | 361 kts | 33° |
| 2026-04-30 18:23 | 55.05612 | 12.44238 | 7967 ft | 352 kts | 33° |
| 2026-04-30 18:23 | 55.07616 | 12.46578 | 7217 ft | 342 kts | 33° |
| 2026-04-30 18:23 | 55.09566 | 12.48866 | 6465 ft | 333 kts | 33° |
| 2026-04-30 18:24 | 55.13339 | 12.53307 | 4962 ft | 321 kts | 33° |
| 2026-04-30 18:24 | 55.15175 | 12.55473 | 4212 ft | 316 kts | 33° |
| 2026-04-30 18:24 | 55.16982 | 12.57606 | 3583 ft | 309 kts | 32° |
| 2026-04-30 18:25 | 55.18719 | 12.59655 | 3289 ft | 293 kts | 32° |
| 2026-04-30 18:25 | 55.21905 | 12.63416 | 3082 ft | 263 kts | 31° |
| 2026-04-30 18:25 | 55.23400 | 12.65176 | 3015 ft | 255 kts | 30° |
| 2026-04-30 18:26 | 55.26459 | 12.68182 | 2990 ft | 252 kts | 25° |
| 2026-04-30 18:26 | 55.28011 | 12.69618 | 2986 ft | 253 kts | 25° |
| 2026-04-30 18:26 | 55.29559 | 12.71091 | 2984 ft | 253 kts | 26° |
| 2026-04-30 18:27 | 55.32640 | 12.74055 | 2984 ft | 253 kts | 24° |
| 2026-04-30 18:27 | 55.34295 | 12.74948 | 2968 ft | 248 kts | 0° |
| 2026-04-30 18:28 | 55.37218 | 12.72302 | 2992 ft | 247 kts | 308° |
| 2026-04-30 18:28 | 55.38170 | 12.69783 | 2995 ft | 248 kts | 304° |
| 2026-04-30 18:28 | 55.40032 | 12.64697 | 2989 ft | 247 kts | 304° |
| 2026-04-30 18:29 | 55.40963 | 12.62152 | 2992 ft | 247 kts | 304° |
| 2026-04-30 18:29 | 55.42052 | 12.53496 | 2997 ft | 253 kts | 269° |
| 2026-04-30 18:30 | 55.41827 | 12.47317 | 2994 ft | 253 kts | 269° |
| 2026-04-30 18:30 | 55.41602 | 12.41146 | 2994 ft | 253 kts | 269° |
| 2026-04-30 18:31 | 55.41562 | 12.38065 | 2986 ft | 251 kts | 278° |
| 2026-04-30 18:31 | 55.43668 | 12.33888 | 2975 ft | 237 kts | 350° |
| 2026-04-30 18:32 | 55.46065 | 12.36388 | 2959 ft | 205 kts | 65° |
| 2026-04-30 18:32 | 55.46557 | 12.38651 | 3033 ft | 191 kts | 60° |
| 2026-04-30 18:32 | 55.48000 | 12.42412 | 3024 ft | 184 kts | 47° |
| 2026-04-30 18:33 | 55.48811 | 12.44174 | 2913 ft | 185 kts | 44° |
| 2026-04-30 18:33 | 55.50689 | 12.47207 | 2256 ft | 178 kts | 37° |
| 2026-04-30 18:33 | 55.51624 | 12.48641 | 2020 ft | 178 kts | 37° |
| 2026-04-30 18:34 | 55.52550 | 12.50065 | 1782 ft | 173 kts | 38° |
| 2026-04-30 18:34 | 55.54251 | 12.52684 | 1341 ft | 154 kts | 38° |
| 2026-04-30 18:34 | 55.55042 | 12.53903 | 1143 ft | 149 kts | 39° |
| 2026-04-30 18:35 | 55.55812 | 12.55090 | 954 ft | 146 kts | 39° |
| 2026-04-30 18:35 | 55.56575 | 12.56268 | 764 ft | 146 kts | 39° |
| 2026-04-30 18:35 | 55.57339 | 12.57447 | 572 ft | 146 kts | 39° |
| 2026-04-30 18:36 | 55.58857 | 12.59765 | 183 ft | 144 kts | 40° |
| 2026-04-30 18:36 | 55.59589 | 12.60938 | 33 ft | 138 kts | 27° |
| 2026-04-30 18:36 | 55.61013 | 12.63108 | 25 ft | 41 kts | 45° |
| 2026-04-30 18:37 | 55.61039 | 12.63153 | 25 ft | 2 kts | 45° |
| 2026-04-30 18:37 | 55.61120 | 12.63278 | 25 ft | 12 kts | 32° |
| 2026-04-30 18:37 | 55.61307 | 12.63315 | 25 ft | 22 kts | 357° |
| 2026-04-30 18:37 | 55.61315 | 12.63314 | 25 ft | 0 kts | 357° |